createdAt,value
2018-10-06T00:02:15.812Z,14.10
2018-10-06T00:04:44.282Z,14.10
2018-10-06T00:07:12.903Z,14.20
2018-10-06T00:09:41.531Z,14.20
2018-10-06T00:12:10.120Z,14.20
2018-10-06T00:14:39.706Z,14.30
2018-10-06T00:17:08.242Z,14.40
2018-10-06T00:19:36.738Z,14.30
2018-10-06T00:22:05.250Z,14.30
2018-10-06T00:24:34.135Z,14.30
2018-10-06T00:27:02.799Z,14.40
2018-10-06T00:29:31.580Z,14.40
2018-10-06T00:32:00.100Z,14.30
2018-10-06T00:34:28.719Z,14.40
2018-10-06T00:36:57.252Z,14.40
2018-10-06T00:39:25.962Z,14.40
2018-10-06T00:41:54.623Z,14.40
2018-10-06T00:44:23.139Z,14.40
2018-10-06T00:46:51.975Z,14.40
2018-10-06T00:49:20.582Z,14.40
2018-10-06T00:51:49.246Z,14.40
2018-10-06T00:54:18.012Z,14.40
2018-10-06T00:56:46.988Z,14.40
2018-10-06T00:59:15.743Z,14.40
2018-10-06T01:01:44.628Z,14.50
2018-10-06T01:04:13.402Z,14.50
2018-10-06T01:06:42.111Z,14.40
2018-10-06T01:09:11.274Z,14.40
2018-10-06T01:11:40.566Z,14.40
2018-10-06T01:14:09.317Z,14.40
2018-10-06T01:16:37.904Z,14.40
2018-10-06T01:19:06.584Z,14.40
2018-10-06T01:21:35.273Z,14.40
2018-10-06T01:24:03.874Z,14.40
2018-10-06T01:26:32.389Z,14.40
2018-10-06T01:29:00.993Z,14.40
2018-10-06T01:31:29.562Z,14.50
2018-10-06T01:33:58.255Z,14.50
2018-10-06T01:36:26.836Z,14.50
2018-10-06T01:38:55.358Z,14.50
2018-10-06T01:41:23.935Z,14.50
2018-10-06T01:43:52.682Z,14.50
2018-10-06T01:46:21.239Z,14.40
2018-10-06T01:48:49.752Z,14.40
2018-10-06T01:51:18.365Z,14.40
2018-10-06T01:53:46.930Z,14.40
2018-10-06T01:56:15.538Z,14.40
2018-10-06T01:58:44.178Z,14.30
2018-10-06T02:01:12.656Z,14.30
2018-10-06T02:03:41.206Z,14.30
2018-10-06T02:06:09.789Z,14.30
2018-10-06T02:08:38.299Z,14.20
2018-10-06T02:11:07.010Z,14.20
2018-10-06T02:13:36.063Z,14.20
2018-10-06T02:16:04.635Z,14.20
2018-10-06T02:18:33.293Z,14.20
2018-10-06T02:21:02.164Z,14.20
2018-10-06T02:23:30.657Z,14.20
2018-10-06T02:25:59.193Z,14.20
2018-10-06T02:28:27.888Z,14.20
2018-10-06T02:30:56.442Z,14.20
2018-10-06T02:33:25.135Z,14.10
2018-10-06T02:35:53.637Z,14.10
2018-10-06T02:38:22.330Z,14.10
2018-10-06T02:40:50.799Z,14.10
2018-10-06T02:43:19.423Z,14.10
2018-10-06T02:45:48.108Z,14.10
2018-10-06T02:48:16.630Z,14.10
2018-10-06T02:50:45.167Z,14.10
2018-10-06T02:53:13.824Z,14.10
2018-10-06T02:55:42.435Z,14.10
2018-10-06T02:58:11.167Z,14.00
2018-10-06T03:00:39.807Z,14.00
2018-10-06T03:03:08.350Z,14.00
2018-10-06T03:05:37.039Z,14.00
2018-10-06T03:08:05.986Z,14.00
2018-10-06T03:10:34.494Z,14.00
2018-10-06T03:13:03.038Z,14.00
2018-10-06T03:15:31.715Z,14.00
2018-10-06T03:18:00.398Z,14.00
2018-10-06T03:20:28.978Z,14.00
2018-10-06T03:22:57.462Z,13.90
2018-10-06T03:25:26.024Z,14.00
2018-10-06T03:27:54.722Z,14.00
2018-10-06T03:30:23.273Z,14.00
2018-10-06T03:32:51.788Z,13.90
2018-10-06T03:35:20.411Z,13.90
2018-10-06T03:37:49.027Z,14.00
2018-10-06T03:40:17.550Z,13.90
2018-10-06T03:42:46.193Z,13.90
2018-10-06T03:45:15.054Z,13.90
2018-10-06T03:47:43.761Z,13.90
2018-10-06T03:50:12.347Z,13.90
2018-10-06T03:52:41.208Z,13.90
2018-10-06T03:55:09.841Z,13.90
2018-10-06T03:57:38.367Z,13.90
2018-10-06T04:00:07.064Z,13.90
2018-10-06T04:02:35.531Z,13.90
2018-10-06T04:05:04.390Z,13.90
2018-10-06T04:07:32.971Z,13.80
2018-10-06T04:10:01.500Z,13.80
2018-10-06T04:12:29.999Z,13.80
2018-10-06T04:14:58.484Z,13.80
2018-10-06T04:17:26.999Z,13.80
2018-10-06T04:19:55.478Z,13.80
2018-10-06T04:22:23.996Z,13.80
2018-10-06T04:24:52.587Z,13.80
2018-10-06T04:27:21.227Z,13.80
2018-10-06T04:29:49.739Z,13.80
2018-10-06T04:32:18.393Z,13.80
2018-10-06T04:34:46.987Z,13.80
2018-10-06T04:37:15.627Z,13.80
2018-10-06T04:39:44.171Z,13.70
2018-10-06T04:42:12.821Z,13.70
2018-10-06T04:44:41.375Z,13.70
2018-10-06T04:47:09.931Z,13.70
2018-10-06T04:49:38.546Z,13.60
2018-10-06T04:52:07.134Z,13.60
2018-10-06T04:54:35.723Z,13.60
2018-10-06T04:57:04.317Z,13.60
2018-10-06T04:59:32.907Z,13.50
2018-10-06T05:02:01.521Z,13.50
2018-10-06T05:04:30.039Z,13.50
2018-10-06T05:06:58.659Z,13.50
2018-10-06T05:09:27.543Z,13.50
2018-10-06T05:11:56.197Z,13.50
2018-10-06T05:14:24.742Z,13.50
2018-10-06T05:16:53.289Z,13.50
2018-10-06T05:19:21.811Z,13.50
2018-10-06T05:21:50.303Z,13.50
2018-10-06T05:24:18.790Z,13.50
2018-10-06T05:26:47.365Z,13.40
2018-10-06T05:29:16.025Z,13.50
2018-10-06T05:31:44.502Z,13.50
2018-10-06T05:34:13.378Z,13.50
2018-10-06T05:36:41.815Z,13.50
2018-10-06T05:39:11.409Z,13.50
2018-10-06T05:41:39.914Z,13.50
2018-10-06T05:44:08.612Z,13.60
2018-10-06T05:46:37.258Z,13.60
2018-10-06T05:49:05.955Z,13.50
2018-10-06T05:51:34.625Z,13.40
2018-10-06T05:54:03.199Z,13.40
2018-10-06T05:56:31.702Z,15.00
2018-10-06T05:59:00.272Z,13.20
2018-10-06T06:01:28.798Z,13.20
2018-10-06T06:03:57.551Z,13.20
2018-10-06T06:06:26.211Z,13.30
2018-10-06T06:08:54.955Z,13.30
2018-10-06T06:11:23.543Z,13.40
2018-10-06T06:13:52.219Z,13.50
2018-10-06T06:16:20.781Z,13.50
2018-10-06T06:18:49.499Z,13.40
2018-10-06T06:21:18.151Z,13.40
2018-10-06T06:23:46.707Z,13.20
2018-10-06T06:26:15.305Z,13.20
2018-10-06T06:28:43.778Z,13.20
2018-10-06T06:31:12.394Z,13.10
2018-10-06T06:33:40.975Z,13.10
2018-10-06T06:36:09.651Z,13.00
2018-10-06T06:38:38.143Z,12.90
2018-10-06T06:41:07.145Z,12.90
2018-10-06T06:43:35.763Z,12.90
2018-10-06T06:46:04.413Z,12.90
2018-10-06T06:48:32.900Z,12.90
2018-10-06T06:51:01.384Z,12.80
2018-10-06T06:53:30.113Z,12.90
2018-10-06T06:55:58.846Z,12.90
2018-10-06T06:58:27.303Z,13.00
2018-10-06T07:00:55.919Z,13.00
2018-10-06T07:03:24.492Z,13.00
2018-10-06T07:05:53.055Z,13.00
2018-10-06T07:08:21.519Z,13.10
2018-10-06T07:10:50.319Z,13.10
2018-10-06T07:13:18.845Z,13.10
2018-10-06T07:15:47.786Z,13.20
2018-10-06T07:18:16.341Z,13.30
2018-10-06T07:20:44.962Z,13.30
2018-10-06T07:23:13.464Z,13.50
2018-10-06T07:25:42.096Z,13.60
2018-10-06T07:28:10.675Z,13.60
2018-10-06T07:30:39.254Z,13.70
2018-10-06T07:33:07.869Z,13.80
2018-10-06T07:35:36.879Z,13.90
2018-10-06T07:38:05.651Z,14.00
2018-10-06T07:40:34.341Z,14.10
2018-10-06T07:43:03.004Z,14.10
2018-10-06T07:45:31.538Z,14.20
2018-10-06T07:48:00.060Z,14.30
2018-10-06T07:50:28.693Z,14.40
2018-10-06T07:52:57.248Z,14.50
2018-10-06T07:55:25.844Z,14.60
2018-10-06T07:57:54.676Z,14.70
2018-10-06T08:00:23.510Z,14.90
2018-10-06T08:02:52.017Z,15.10
2018-10-06T08:05:20.730Z,15.20
2018-10-06T08:07:49.431Z,15.30
2018-10-06T08:10:17.975Z,15.40
2018-10-06T08:12:46.503Z,15.60
2018-10-06T08:15:15.215Z,15.70
2018-10-06T08:17:44.162Z,15.80
2018-10-06T08:20:12.687Z,15.90
2018-10-06T08:22:41.197Z,16.00
2018-10-06T08:25:09.810Z,16.10
2018-10-06T08:27:38.422Z,16.20
2018-10-06T08:30:07.375Z,16.30
2018-10-06T08:32:36.027Z,16.30
2018-10-06T08:35:04.798Z,16.40
2018-10-06T08:37:33.504Z,16.40
2018-10-06T08:40:02.147Z,16.40
2018-10-06T08:42:30.820Z,16.40
2018-10-06T08:44:59.309Z,16.40
2018-10-06T08:47:27.851Z,16.40
2018-10-06T08:49:56.431Z,16.30
2018-10-06T08:52:24.967Z,16.40
2018-10-06T08:54:54.080Z,16.40
2018-10-06T08:57:22.584Z,16.40
2018-10-06T08:59:51.202Z,16.40
2018-10-06T09:02:19.725Z,16.50
2018-10-06T09:04:48.544Z,16.50
2018-10-06T09:07:17.274Z,16.60
2018-10-06T09:09:45.790Z,16.70
2018-10-06T09:12:14.478Z,16.90
2018-10-06T09:14:43.018Z,17.00
2018-10-06T09:17:11.945Z,17.00
2018-10-06T09:19:40.682Z,17.30
2018-10-06T09:22:09.187Z,17.40
2018-10-06T09:24:38.037Z,17.50
2018-10-06T09:27:07.453Z,17.60
2018-10-06T09:29:36.094Z,17.70
2018-10-06T09:32:04.767Z,17.80
2018-10-06T09:34:33.495Z,17.90
2018-10-06T09:37:02.098Z,18.00
2018-10-06T09:39:30.771Z,18.20
2018-10-06T09:41:59.895Z,18.20
2018-10-06T09:44:28.383Z,18.30
2018-10-06T09:46:57.093Z,18.30
2018-10-06T09:49:25.592Z,18.40
2018-10-06T09:51:54.176Z,18.40
2018-10-06T09:54:22.807Z,18.60
2018-10-06T09:56:51.574Z,18.70
2018-10-06T09:59:20.336Z,18.60
2018-10-06T10:01:54.219Z,18.70
2018-10-06T10:04:22.743Z,18.80
2018-10-06T10:06:51.282Z,18.80
2018-10-06T10:09:19.857Z,18.80
2018-10-06T10:11:48.421Z,18.90
2018-10-06T10:14:17.026Z,18.90
2018-10-06T10:16:45.613Z,19.30
2018-10-06T10:19:14.286Z,19.30
2018-10-06T10:21:42.948Z,19.30
2018-10-06T10:24:11.424Z,19.50
2018-10-06T10:26:39.927Z,19.70
2018-10-06T10:29:08.558Z,19.90
2018-10-06T10:31:37.064Z,19.80
2018-10-06T10:34:05.546Z,19.80
2018-10-06T10:36:34.070Z,19.80
2018-10-06T10:39:02.690Z,19.90
2018-10-06T10:41:31.402Z,19.90
2018-10-06T10:46:39.863Z,20.00
2018-10-06T10:49:08.408Z,20.10
2018-10-06T10:51:37.042Z,20.20
2018-10-06T10:54:05.778Z,20.30
2018-10-06T10:56:34.435Z,20.40
2018-10-06T10:59:03.021Z,20.30
2018-10-06T11:01:31.671Z,20.50
2018-10-06T11:04:00.361Z,20.50
2018-10-06T11:06:28.909Z,20.90
2018-10-06T11:08:57.452Z,20.80
2018-10-06T11:11:26.130Z,20.80
2018-10-06T11:13:54.613Z,21.00
2018-10-06T11:16:23.137Z,21.10
2018-10-06T11:18:51.875Z,21.30
2018-10-06T11:21:20.435Z,21.20
2018-10-06T11:23:49.024Z,21.30
2018-10-06T11:26:17.600Z,21.30
2018-10-06T11:28:46.452Z,21.20
2018-10-06T11:31:15.271Z,21.20
2018-10-06T11:33:44.131Z,21.40
2018-10-06T11:36:12.760Z,21.30
2018-10-06T11:38:41.263Z,21.40
2018-10-06T11:41:10.090Z,21.70
2018-10-06T11:43:38.622Z,21.80
2018-10-06T11:46:07.315Z,21.90
2018-10-06T11:48:35.978Z,21.90
2018-10-06T11:51:04.521Z,21.80
2018-10-06T11:53:33.296Z,21.90
2018-10-06T11:56:01.870Z,21.80
2018-10-06T11:58:30.536Z,21.70
2018-10-06T12:00:59.140Z,21.90
2018-10-06T12:03:27.875Z,21.90
2018-10-06T12:05:56.443Z,21.90
2018-10-06T12:08:24.994Z,21.90
2018-10-06T12:10:53.671Z,22.00
2018-10-06T12:13:22.183Z,22.00
2018-10-06T12:15:50.948Z,21.80
2018-10-06T12:18:19.525Z,21.80
2018-10-06T12:20:48.068Z,21.70
2018-10-06T12:23:16.587Z,21.80
2018-10-06T12:25:45.464Z,21.80
2018-10-06T12:28:14.113Z,21.90
2018-10-06T12:30:42.968Z,21.90
2018-10-06T12:33:18.117Z,21.90
2018-10-06T12:35:47.128Z,21.90
2018-10-06T12:38:15.589Z,21.90
2018-10-06T12:40:44.195Z,21.80
2018-10-06T12:43:13.051Z,21.70
2018-10-06T12:45:41.836Z,21.70
2018-10-06T12:48:10.659Z,21.80
2018-10-06T12:50:39.491Z,21.60
2018-10-06T12:53:08.147Z,21.60
2018-10-06T12:55:36.979Z,21.60
2018-10-06T12:58:05.782Z,21.60
2018-10-06T13:00:34.435Z,21.60
2018-10-06T13:03:03.012Z,21.70
2018-10-06T13:05:31.863Z,21.80
2018-10-06T13:08:00.566Z,21.70
2018-10-06T13:10:29.436Z,21.70
2018-10-06T13:12:58.035Z,21.60
2018-10-06T13:15:26.952Z,21.70
2018-10-06T13:17:55.568Z,21.70
2018-10-06T13:20:24.155Z,21.60
2018-10-06T13:22:53.079Z,21.60
2018-10-06T13:25:21.720Z,21.70
2018-10-06T13:27:50.746Z,21.70
2018-10-06T13:30:19.576Z,21.80
2018-10-06T13:32:48.677Z,21.80
2018-10-06T13:35:17.555Z,21.80
2018-10-06T13:37:46.306Z,21.70
2018-10-06T13:40:14.827Z,21.70
2018-10-06T13:42:43.790Z,21.70
2018-10-06T13:45:12.521Z,21.80
2018-10-06T13:47:41.393Z,21.80
2018-10-06T13:50:09.946Z,21.80
2018-10-06T13:52:38.731Z,21.70
2018-10-06T13:55:07.395Z,21.70
2018-10-06T13:57:35.992Z,21.80
2018-10-06T14:00:04.882Z,21.70
2018-10-06T14:02:33.411Z,21.70
2018-10-06T14:05:02.399Z,21.70
2018-10-06T14:07:31.195Z,21.70
2018-10-06T14:09:59.931Z,21.80
2018-10-06T14:12:28.471Z,21.70
2018-10-06T14:14:57.196Z,21.60
2018-10-06T14:17:25.780Z,21.50
2018-10-06T14:19:54.506Z,21.30
2018-10-06T14:22:23.191Z,21.40
2018-10-06T14:24:51.729Z,21.40
2018-10-06T14:27:20.314Z,21.40
2018-10-06T14:29:49.112Z,21.30
2018-10-06T14:32:17.882Z,21.40
2018-10-06T14:34:46.443Z,21.30
2018-10-06T14:37:14.927Z,21.40
2018-10-06T14:39:43.600Z,21.40
2018-10-06T14:42:12.192Z,21.30
2018-10-06T14:44:40.804Z,21.20
2018-10-06T14:47:09.594Z,21.30
2018-10-06T14:49:38.042Z,21.20
2018-10-06T14:52:06.913Z,21.10
2018-10-06T14:54:35.639Z,21.10
2018-10-06T14:57:04.133Z,21.10
2018-10-06T14:59:32.656Z,21.10
2018-10-06T15:02:01.289Z,21.10
2018-10-06T15:04:29.988Z,21.00
2018-10-06T15:06:58.967Z,21.00
2018-10-06T15:09:27.635Z,21.00
2018-10-06T15:11:56.339Z,20.90
2018-10-06T15:14:24.839Z,20.90
2018-10-06T15:16:53.438Z,20.70
2018-10-06T15:19:22.079Z,20.70
2018-10-06T15:21:50.667Z,20.70
2018-10-06T15:24:19.329Z,20.50
2018-10-06T15:26:47.925Z,20.50
2018-10-06T15:29:16.611Z,20.40
2018-10-06T15:31:45.165Z,20.40
2018-10-06T15:34:13.799Z,20.30
2018-10-06T15:36:42.594Z,20.30
2018-10-06T15:39:11.185Z,20.20
2018-10-06T15:41:40.065Z,20.10
2018-10-06T15:44:08.730Z,20.00
2018-10-06T15:46:37.415Z,20.00
2018-10-06T15:49:06.313Z,20.00
2018-10-06T15:51:34.950Z,19.90
2018-10-06T15:54:03.556Z,19.90
2018-10-06T15:56:32.208Z,19.90
2018-10-06T15:59:00.682Z,19.80
2018-10-06T16:01:29.425Z,19.80
2018-10-06T16:03:57.907Z,19.80
2018-10-06T16:06:26.631Z,19.70
2018-10-06T16:08:55.331Z,19.70
2018-10-06T16:11:23.892Z,19.70
2018-10-06T16:13:52.408Z,19.70
2018-10-06T16:16:20.935Z,19.60
2018-10-06T16:18:49.595Z,19.60
2018-10-06T16:21:18.156Z,19.50
2018-10-06T16:23:46.777Z,19.50
2018-10-06T16:26:15.400Z,19.50
2018-10-06T16:28:43.891Z,19.40
2018-10-06T16:31:12.472Z,19.40
2018-10-06T16:33:41.253Z,19.30
2018-10-06T16:36:09.715Z,19.30
2018-10-06T16:38:38.359Z,19.30
2018-10-06T16:41:07.130Z,19.20
2018-10-06T16:43:35.789Z,19.20
2018-10-06T16:46:04.508Z,19.20
2018-10-06T16:48:33.198Z,19.10
2018-10-06T16:51:02.026Z,19.00
2018-10-06T16:53:30.740Z,19.00
2018-10-06T16:55:59.500Z,18.90
2018-10-06T16:58:28.131Z,18.90
2018-10-06T17:00:56.720Z,18.80
2018-10-06T17:03:25.275Z,18.80
2018-10-06T17:05:53.787Z,18.70
2018-10-06T17:08:22.442Z,18.60
2018-10-06T17:10:50.981Z,18.60
2018-10-06T17:13:19.864Z,18.50
2018-10-06T17:15:48.592Z,18.50
2018-10-06T17:18:17.434Z,18.40
2018-10-06T17:20:46.047Z,18.40
2018-10-06T17:23:14.776Z,18.30
2018-10-06T17:25:43.421Z,18.20
2018-10-06T17:28:12.060Z,18.20
2018-10-06T17:30:40.662Z,19.40
2018-10-06T17:33:09.339Z,18.10
2018-10-06T17:35:38.100Z,18.10
2018-10-06T17:38:06.836Z,18.10
2018-10-06T17:40:35.380Z,18.10
2018-10-06T17:43:04.140Z,18.00
2018-10-06T17:45:33.187Z,18.10
2018-10-06T17:48:01.963Z,18.10
2018-10-06T17:50:30.736Z,18.10
2018-10-06T17:52:59.271Z,18.10
2018-10-06T17:55:27.914Z,18.20
2018-10-06T17:57:56.473Z,18.20
2018-10-06T18:00:25.340Z,18.30
2018-10-06T18:02:53.970Z,18.30
2018-10-06T18:05:22.613Z,18.30
2018-10-06T18:07:51.216Z,18.40
2018-10-06T18:10:19.908Z,18.40
2018-10-06T18:12:48.462Z,18.40
2018-10-06T18:15:17.211Z,18.40
2018-10-06T18:17:45.779Z,18.40
2018-10-06T18:20:14.471Z,18.40
2018-10-06T18:22:43.040Z,18.30
2018-10-06T18:25:11.559Z,18.30
2018-10-06T18:27:40.234Z,18.20
2018-10-06T18:30:08.894Z,18.20
2018-10-06T18:32:37.775Z,18.10
2018-10-06T18:35:06.316Z,18.10
2018-10-06T18:37:34.905Z,18.10
2018-10-06T18:40:03.518Z,18.10
2018-10-06T18:42:32.168Z,18.20
2018-10-06T18:45:00.898Z,18.20
2018-10-06T18:47:29.589Z,18.40
2018-10-06T18:49:58.474Z,18.40
2018-10-06T18:52:27.219Z,18.40
2018-10-06T18:54:55.650Z,18.40
2018-10-06T18:57:24.193Z,18.40
2018-10-06T18:59:52.936Z,18.40
2018-10-06T19:02:21.767Z,18.40
2018-10-06T19:04:50.398Z,18.30
2018-10-06T19:07:19.259Z,18.30
2018-10-06T19:09:47.865Z,18.30
2018-10-06T19:12:16.612Z,18.30
2018-10-06T19:14:45.419Z,18.30
2018-10-06T19:17:14.046Z,18.30
2018-10-06T19:22:22.907Z,18.20
2018-10-06T19:24:51.535Z,18.20
2018-10-06T19:27:20.024Z,18.20
2018-10-06T19:29:48.670Z,18.20
2018-10-06T19:32:17.488Z,18.30
2018-10-06T19:34:46.188Z,18.30
2018-10-06T19:37:14.736Z,18.30
2018-10-06T19:39:43.354Z,18.30
2018-10-06T19:42:11.891Z,18.30
2018-10-06T19:44:40.648Z,18.30
2018-10-06T19:47:09.169Z,18.30
2018-10-06T19:49:37.871Z,18.30
2018-10-06T19:52:06.662Z,18.30
2018-10-06T19:54:35.366Z,18.30
2018-10-06T19:57:04.012Z,18.30
2018-10-06T19:59:32.819Z,18.30
2018-10-06T20:02:01.799Z,18.30
2018-10-06T20:04:30.644Z,18.30
2018-10-06T20:06:59.336Z,18.30
2018-10-06T20:09:28.070Z,18.30
2018-10-06T20:11:56.722Z,18.30
2018-10-06T20:14:25.261Z,18.30
2018-10-06T20:16:53.920Z,18.30
2018-10-06T20:19:22.751Z,18.20
2018-10-06T20:21:51.378Z,18.20
2018-10-06T20:24:19.943Z,18.20
2018-10-06T20:26:48.620Z,18.20
2018-10-06T20:29:17.167Z,18.20
2018-10-06T20:31:45.708Z,18.20
2018-10-06T20:34:14.410Z,18.20
2018-10-06T20:36:42.931Z,18.20
2018-10-06T20:39:11.669Z,18.20
2018-10-06T20:41:40.198Z,18.20
2018-10-06T20:44:08.813Z,18.20
2018-10-06T20:46:37.570Z,18.10
2018-10-06T20:49:06.733Z,18.10
2018-10-06T20:51:35.379Z,18.10
2018-10-06T20:54:04.019Z,18.10
2018-10-06T20:56:32.765Z,18.10
2018-10-06T20:59:01.523Z,18.10
2018-10-06T21:01:30.161Z,18.10
2018-10-06T21:03:58.691Z,18.00
2018-10-06T21:06:27.541Z,17.90
2018-10-06T21:08:56.152Z,17.90
2018-10-06T21:11:24.765Z,17.90
2018-10-06T21:13:53.422Z,17.90
2018-10-06T21:16:22.334Z,17.90
2018-10-06T21:18:50.911Z,17.80
2018-10-06T21:21:19.527Z,17.70
2018-10-06T21:23:48.054Z,17.70
2018-10-06T21:26:16.764Z,17.60
2018-10-06T21:28:45.569Z,17.60
2018-10-06T21:31:14.212Z,17.50
2018-10-06T21:33:42.747Z,17.50
2018-10-06T21:36:11.375Z,17.50
2018-10-06T21:38:40.069Z,17.50
2018-10-06T21:41:08.598Z,17.50
2018-10-06T21:43:37.140Z,17.50
2018-10-06T21:46:05.761Z,17.50
2018-10-06T21:48:34.549Z,17.50
2018-10-06T21:51:03.236Z,17.50
2018-10-06T21:53:31.842Z,17.40
2018-10-06T21:56:00.623Z,17.40
2018-10-06T21:58:29.262Z,17.30
2018-10-06T22:01:03.344Z,17.20
2018-10-06T22:03:31.894Z,17.10
2018-10-06T22:06:00.450Z,17.10
2018-10-06T22:08:29.003Z,17.00
2018-10-06T22:10:57.734Z,16.90
2018-10-06T22:13:26.584Z,16.80
2018-10-06T22:15:55.387Z,16.70
2018-10-06T22:18:23.874Z,16.70
2018-10-06T22:20:52.567Z,16.60
2018-10-06T22:23:21.161Z,16.60
2018-10-06T22:25:50.297Z,16.60
2018-10-06T22:28:19.201Z,16.60
2018-10-06T22:30:47.968Z,16.50
2018-10-06T22:33:16.628Z,16.50
2018-10-06T22:35:45.303Z,16.50
2018-10-06T22:38:13.915Z,16.50
2018-10-06T22:40:42.431Z,16.30
2018-10-06T22:43:11.123Z,16.30
2018-10-06T22:45:40.000Z,16.40
2018-10-06T22:48:08.555Z,16.30
2018-10-06T22:50:37.108Z,16.20
2018-10-06T22:53:05.760Z,16.30
2018-10-06T22:55:34.408Z,16.20
2018-10-06T22:58:03.132Z,16.10
2018-10-06T23:00:31.752Z,16.00
2018-10-06T23:03:00.513Z,16.00
2018-10-06T23:05:29.111Z,16.00
2018-10-06T23:07:57.649Z,16.00
2018-10-06T23:10:26.344Z,15.80
2018-10-06T23:12:54.884Z,15.80
2018-10-06T23:15:23.441Z,15.70
2018-10-06T23:17:51.995Z,15.80
2018-10-06T23:20:20.740Z,15.70
2018-10-06T23:22:49.287Z,15.70
2018-10-06T23:25:17.819Z,15.80
2018-10-06T23:27:46.699Z,15.80
2018-10-06T23:30:15.332Z,15.70
2018-10-06T23:32:43.931Z,15.70
2018-10-06T23:35:12.564Z,15.80
2018-10-06T23:37:41.059Z,15.70
2018-10-06T23:40:09.678Z,15.70
2018-10-06T23:42:38.338Z,15.70
2018-10-06T23:45:06.871Z,15.60
2018-10-06T23:47:35.474Z,15.50
2018-10-06T23:50:04.216Z,15.40
2018-10-06T23:52:32.795Z,15.40
2018-10-06T23:55:01.304Z,15.40
2018-10-06T23:59:55.753Z,15.40
